Forside
METAR-TAF:

METAR-TAF

Lufthavne :

Saskatoon, Saskatchewan, Canada

Breddekreds: 52-10N, længdekreds: 106-41W, højde: 501 m

Aktuelle vejr

Denne rapport blev lavet for 21 minutter siden, kl. 23:00 UTC
Vind 7 kt fra sydsydøst, varierende mellem øst og syd
Temperatur 34°C
Fugtighed 23%
Tryk 1014 hPa
Sigt: 24.1 km
Nogle få skyer i en højde af 6000 ft

METAR: CYXE 172300Z 16007KT 100V190 15SM FEW060 34/10 A2993 RMK CF1 CF TR SLP136 DENSITY ALT 4300FT

Tid: 17:21 (23:21 UTC)

Vejrudsigter

Denne rapport blev lavet for 5 timer og 37 minutter siden, kl. 17:44 UTC
Foreløbig gælder fra 17 på 18 UTC til 18 på 18 UTC
Vind 8 kt fra sydsydøst
Sigt: 10 km
skyfri
Fra 18 på 0200 UTC
Vind 6 kt fra østsydøst
Sigt: 10 km
Spredte skyer i en højde af 25000 ft
Fra 18 på 1000 UTC
Vind 8 kt fra sydsydøst
Sigt: 10 km
Spredte skyer i en højde af 12000 ft
Brudte skyer i en højde af 25000 ft

TAF: CYXE 171744Z 1718/1818 16008KT P6SM SKC FM180200 12006KT P6SM SCT250 FM181000 15008KT P6SM SCT120 BKN250 RMK NXT FCST BY 180000Z

Vejrobservationer og prognoser fra mere end 4000 lufthavne (METAR og TAF).

De gule og røde prikker repræsenterer de meteorologiske stationer.

Flyt musen over at se navnet på stationen.

Så klik over at se vejr observationer og prognoser.

At skifte det kort: Klik på de grønne knapper med et sort kors for at zoome ind; på den grønne knap med en bindestreg for at zoome ud; eller på de grønne pile for tilstødende kort.


METAR-TAF: